sensor_id;sensor_type;location;lat;lon;timestamp;P1;durP1;ratioP1;P2;durP2;ratioP2
48873;SDS011;66155;46.204;5.220;2023-08-06T00:00:22;3.07;;;1.57;;
48873;SDS011;66155;46.204;5.220;2023-08-06T00:05:23;2.15;;;1.63;;
48873;SDS011;66155;46.204;5.220;2023-08-06T00:10:23;2.07;;;1.53;;
48873;SDS011;66155;46.204;5.220;2023-08-06T00:15:23;2.88;;;1.70;;
48873;SDS011;66155;46.204;5.220;2023-08-06T00:20:24;2.13;;;1.50;;
48873;SDS011;66155;46.204;5.220;2023-08-06T00:25:24;2.78;;;1.60;;
48873;SDS011;66155;46.204;5.220;2023-08-06T00:30:24;3.25;;;1.60;;
48873;SDS011;66155;46.204;5.220;2023-08-06T00:35:24;2.30;;;1.60;;
48873;SDS011;66155;46.204;5.220;2023-08-06T00:40:25;1.97;;;1.60;;
48873;SDS011;66155;46.204;5.220;2023-08-06T00:45:25;1.47;;;1.37;;
48873;SDS011;66155;46.204;5.220;2023-08-06T00:50:26;1.88;;;1.55;;
48873;SDS011;66155;46.204;5.220;2023-08-06T00:55:26;2.85;;;1.58;;
48873;SDS011;66155;46.204;5.220;2023-08-06T01:00:26;3.93;;;1.67;;
48873;SDS011;66155;46.204;5.220;2023-08-06T01:05:27;1.83;;;1.47;;
48873;SDS011;66155;46.204;5.220;2023-08-06T01:15:29;5.13;;;2.03;;
48873;SDS011;66155;46.204;5.220;2023-08-06T01:20:30;1.95;;;1.40;;
48873;SDS011;66155;46.204;5.220;2023-08-06T01:25:33;2.38;;;1.60;;
48873;SDS011;66155;46.204;5.220;2023-08-06T01:30:34;2.65;;;2.00;;
48873;SDS011;66155;46.204;5.220;2023-08-06T01:35:39;5.30;;;2.30;;
48873;SDS011;66155;46.204;5.220;2023-08-06T01:40:39;10.23;;;2.40;;
48873;SDS011;66155;46.204;5.220;2023-08-06T01:45:39;3.63;;;1.90;;
48873;SDS011;66155;46.204;5.220;2023-08-06T01:50:40;6.67;;;2.83;;
48873;SDS011;66155;46.204;5.220;2023-08-06T01:55:40;6.90;;;2.47;;
48873;SDS011;66155;46.204;5.220;2023-08-06T02:00:43;8.20;;;2.33;;
48873;SDS011;66155;46.204;5.220;2023-08-06T02:05:44;9.10;;;2.63;;
48873;SDS011;66155;46.204;5.220;2023-08-06T02:10:45;5.82;;;2.15;;
48873;SDS011;66155;46.204;5.220;2023-08-06T02:15:46;6.43;;;1.90;;
48873;SDS011;66155;46.204;5.220;2023-08-06T02:20:55;12.25;;;2.40;;
48873;SDS011;66155;46.204;5.220;2023-08-06T02:25:57;10.65;;;2.67;;
48873;SDS011;66155;46.204;5.220;2023-08-06T02:30:58;8.15;;;2.03;;
48873;SDS011;66155;46.204;5.220;2023-08-06T02:35:59;8.03;;;2.47;;
48873;SDS011;66155;46.204;5.220;2023-08-06T02:41:03;7.15;;;2.53;;
48873;SDS011;66155;46.204;5.220;2023-08-06T02:46:03;10.00;;;2.83;;
48873;SDS011;66155;46.204;5.220;2023-08-06T02:51:04;11.50;;;3.03;;
48873;SDS011;66155;46.204;5.220;2023-08-06T02:56:04;9.20;;;2.57;;
48873;SDS011;66155;46.204;5.220;2023-08-06T03:01:05;11.03;;;2.60;;
48873;SDS011;66155;46.204;5.220;2023-08-06T03:06:07;10.73;;;2.65;;
48873;SDS011;66155;46.204;5.220;2023-08-06T03:11:07;9.90;;;2.70;;
48873;SDS011;66155;46.204;5.220;2023-08-06T03:16:07;14.10;;;2.55;;
48873;SDS011;66155;46.204;5.220;2023-08-06T03:21:07;8.70;;;2.20;;
48873;SDS011;66155;46.204;5.220;2023-08-06T03:26:08;10.20;;;2.60;;
48873;SDS011;66155;46.204;5.220;2023-08-06T03:31:08;6.97;;;1.93;;
48873;SDS011;66155;46.204;5.220;2023-08-06T03:36:08;6.45;;;2.08;;
48873;SDS011;66155;46.204;5.220;2023-08-06T03:41:09;5.75;;;2.72;;
48873;SDS011;66155;46.204;5.220;2023-08-06T03:46:09;4.60;;;1.90;;
48873;SDS011;66155;46.204;5.220;2023-08-06T03:51:09;10.70;;;2.20;;
48873;SDS011;66155;46.204;5.220;2023-08-06T03:56:10;5.60;;;2.27;;
48873;SDS011;66155;46.204;5.220;2023-08-06T04:01:10;4.37;;;2.10;;
48873;SDS011;66155;46.204;5.220;2023-08-06T04:06:10;7.87;;;2.23;;
48873;SDS011;66155;46.204;5.220;2023-08-06T04:11:11;8.10;;;2.03;;
48873;SDS011;66155;46.204;5.220;2023-08-06T04:16:12;9.43;;;3.10;;
48873;SDS011;66155;46.204;5.220;2023-08-06T04:21:14;9.13;;;2.22;;
48873;SDS011;66155;46.204;5.220;2023-08-06T04:26:15;6.97;;;2.03;;
48873;SDS011;66155;46.204;5.220;2023-08-06T04:31:15;5.67;;;1.90;;
48873;SDS011;66155;46.204;5.220;2023-08-06T04:36:15;6.63;;;1.90;;
48873;SDS011;66155;46.204;5.220;2023-08-06T04:41:16;6.57;;;1.90;;
48873;SDS011;66155;46.204;5.220;2023-08-06T04:46:16;5.35;;;2.17;;
48873;SDS011;66155;46.204;5.220;2023-08-06T04:51:18;5.72;;;1.75;;
48873;SDS011;66155;46.204;5.220;2023-08-06T04:56:18;6.72;;;1.80;;
48873;SDS011;66155;46.204;5.220;2023-08-06T05:01:18;5.72;;;2.03;;
48873;SDS011;66155;46.204;5.220;2023-08-06T05:06:19;5.10;;;1.75;;
48873;SDS011;66155;46.204;5.220;2023-08-06T05:11:19;3.67;;;1.70;;
48873;SDS011;66155;46.204;5.220;2023-08-06T05:16:19;5.27;;;1.80;;
48873;SDS011;66155;46.204;5.220;2023-08-06T05:21:20;6.82;;;1.50;;
48873;SDS011;66155;46.204;5.220;2023-08-06T05:26:20;5.37;;;1.90;;
48873;SDS011;66155;46.204;5.220;2023-08-06T05:31:20;7.88;;;2.35;;
48873;SDS011;66155;46.204;5.220;2023-08-06T05:36:21;3.00;;;1.70;;
48873;SDS011;66155;46.204;5.220;2023-08-06T05:41:21;6.55;;;2.45;;
48873;SDS011;66155;46.204;5.220;2023-08-06T05:46:21;3.00;;;2.23;;
48873;SDS011;66155;46.204;5.220;2023-08-06T05:51:22;4.87;;;2.30;;
48873;SDS011;66155;46.204;5.220;2023-08-06T05:56:23;3.53;;;2.70;;
48873;SDS011;66155;46.204;5.220;2023-08-06T06:01:23;5.07;;;1.80;;
48873;SDS011;66155;46.204;5.220;2023-08-06T06:06:23;2.70;;;1.50;;
48873;SDS011;66155;46.204;5.220;2023-08-06T06:11:23;7.95;;;3.15;;
48873;SDS011;66155;46.204;5.220;2023-08-06T06:16:25;4.45;;;1.90;;
48873;SDS011;66155;46.204;5.220;2023-08-06T06:21:25;3.85;;;1.88;;
48873;SDS011;66155;46.204;5.220;2023-08-06T06:26:26;3.23;;;1.53;;
48873;SDS011;66155;46.204;5.220;2023-08-06T06:31:26;6.47;;;1.80;;
48873;SDS011;66155;46.204;5.220;2023-08-06T06:36:26;4.97;;;2.03;;
48873;SDS011;66155;46.204;5.220;2023-08-06T06:41:27;5.40;;;1.77;;
48873;SDS011;66155;46.204;5.220;2023-08-06T06:46:29;4.55;;;1.67;;
48873;SDS011;66155;46.204;5.220;2023-08-06T06:51:29;3.80;;;1.63;;
48873;SDS011;66155;46.204;5.220;2023-08-06T06:56:31;5.57;;;1.67;;
48873;SDS011;66155;46.204;5.220;2023-08-06T07:01:32;3.87;;;1.73;;
48873;SDS011;66155;46.204;5.220;2023-08-06T07:06:32;4.05;;;2.35;;
48873;SDS011;66155;46.204;5.220;2023-08-06T07:11:33;4.13;;;1.40;;
48873;SDS011;66155;46.204;5.220;2023-08-06T07:19:58;4.22;;;2.58;;
48873;SDS011;66155;46.204;5.220;2023-08-06T07:25:53;3.05;;;1.73;;
48873;SDS011;66155;46.204;5.220;2023-08-06T07:31:44;5.57;;;1.77;;
48873;SDS011;66155;46.204;5.220;2023-08-06T07:37:35;3.42;;;1.65;;
48873;SDS011;66155;46.204;5.220;2023-08-06T07:43:26;3.63;;;1.73;;
48873;SDS011;66155;46.204;5.220;2023-08-06T07:49:17;2.17;;;1.75;;
48873;SDS011;66155;46.204;5.220;2023-08-06T07:55:08;2.70;;;1.60;;
48873;SDS011;66155;46.204;5.220;2023-08-06T08:01:02;2.95;;;1.67;;
48873;SDS011;66155;46.204;5.220;2023-08-06T08:06:53;4.10;;;1.73;;
48873;SDS011;66155;46.204;5.220;2023-08-06T08:12:44;6.57;;;2.40;;
48873;SDS011;66155;46.204;5.220;2023-08-06T08:18:35;1.40;;;1.30;;
48873;SDS011;66155;46.204;5.220;2023-08-06T08:24:26;2.20;;;1.75;;
48873;SDS011;66155;46.204;5.220;2023-08-06T08:30:17;3.88;;;1.60;;
48873;SDS011;66155;46.204;5.220;2023-08-06T08:36:09;5.00;;;1.52;;
48873;SDS011;66155;46.204;5.220;2023-08-06T08:42:00;3.85;;;1.80;;
48873;SDS011;66155;46.204;5.220;2023-08-06T08:47:51;3.25;;;2.03;;
48873;SDS011;66155;46.204;5.220;2023-08-06T08:53:44;4.30;;;2.38;;
48873;SDS011;66155;46.204;5.220;2023-08-06T08:59:35;3.65;;;1.63;;
48873;SDS011;66155;46.204;5.220;2023-08-06T09:05:30;6.57;;;2.00;;
48873;SDS011;66155;46.204;5.220;2023-08-06T09:11:24;5.30;;;3.60;;
48873;SDS011;66155;46.204;5.220;2023-08-06T09:17:17;3.22;;;1.90;;
48873;SDS011;66155;46.204;5.220;2023-08-06T09:23:11;3.70;;;1.80;;
48873;SDS011;66155;46.204;5.220;2023-08-06T09:29:07;6.03;;;1.50;;
48873;SDS011;66155;46.204;5.220;2023-08-06T09:34:58;3.92;;;1.83;;
48873;SDS011;66155;46.204;5.220;2023-08-06T09:40:50;2.85;;;1.80;;
48873;SDS011;66155;46.204;5.220;2023-08-06T09:46:41;3.63;;;2.28;;
48873;SDS011;66155;46.204;5.220;2023-08-06T09:52:32;3.30;;;1.67;;
48873;SDS011;66155;46.204;5.220;2023-08-06T09:58:23;2.60;;;1.60;;
48873;SDS011;66155;46.204;5.220;2023-08-06T10:04:16;3.88;;;1.90;;
48873;SDS011;66155;46.204;5.220;2023-08-06T10:10:08;4.22;;;1.90;;
48873;SDS011;66155;46.204;5.220;2023-08-06T10:15:59;4.03;;;2.20;;
48873;SDS011;66155;46.204;5.220;2023-08-06T10:22:10;3.47;;;1.98;;
48873;SDS011;66155;46.204;5.220;2023-08-06T10:28:08;3.63;;;2.28;;
48873;SDS011;66155;46.204;5.220;2023-08-06T10:33:59;4.57;;;2.30;;
48873;SDS011;66155;46.204;5.220;2023-08-06T10:39:53;5.47;;;1.98;;
48873;SDS011;66155;46.204;5.220;2023-08-06T10:46:02;5.90;;;2.03;;
48873;SDS011;66155;46.204;5.220;2023-08-06T10:51:53;3.47;;;1.90;;
48873;SDS011;66155;46.204;5.220;2023-08-06T10:57:45;4.90;;;2.03;;
48873;SDS011;66155;46.204;5.220;2023-08-06T11:03:36;3.72;;;2.10;;
48873;SDS011;66155;46.204;5.220;2023-08-06T11:09:30;3.58;;;1.90;;
48873;SDS011;66155;46.204;5.220;2023-08-06T11:15:21;3.30;;;2.13;;
48873;SDS011;66155;46.204;5.220;2023-08-06T11:21:20;3.17;;;1.90;;
48873;SDS011;66155;46.204;5.220;2023-08-06T11:27:12;3.33;;;1.80;;
48873;SDS011;66155;46.204;5.220;2023-08-06T11:33:06;3.22;;;2.28;;
48873;SDS011;66155;46.204;5.220;2023-08-06T11:38:58;4.32;;;1.90;;
48873;SDS011;66155;46.204;5.220;2023-08-06T11:44:49;3.15;;;1.60;;
48873;SDS011;66155;46.204;5.220;2023-08-06T11:50:40;3.55;;;2.03;;
48873;SDS011;66155;46.204;5.220;2023-08-06T11:56:32;5.40;;;2.33;;
48873;SDS011;66155;46.204;5.220;2023-08-06T12:02:23;2.42;;;2.03;;
48873;SDS011;66155;46.204;5.220;2023-08-06T12:08:18;4.05;;;2.40;;
48873;SDS011;66155;46.204;5.220;2023-08-06T12:14:10;3.55;;;2.13;;
48873;SDS011;66155;46.204;5.220;2023-08-06T12:20:03;3.00;;;2.20;;
48873;SDS011;66155;46.204;5.220;2023-08-06T12:25:54;3.22;;;1.77;;
48873;SDS011;66155;46.204;5.220;2023-08-06T12:31:45;1.67;;;1.40;;
48873;SDS011;66155;46.204;5.220;2023-08-06T12:37:36;3.65;;;2.90;;
48873;SDS011;66155;46.204;5.220;2023-08-06T12:43:27;6.97;;;2.20;;
48873;SDS011;66155;46.204;5.220;2023-08-06T12:49:18;2.78;;;2.10;;
48873;SDS011;66155;46.204;5.220;2023-08-06T12:55:09;3.60;;;1.75;;
48873;SDS011;66155;46.204;5.220;2023-08-06T13:01:00;3.35;;;1.85;;
48873;SDS011;66155;46.204;5.220;2023-08-06T13:06:54;5.30;;;2.25;;
48873;SDS011;66155;46.204;5.220;2023-08-06T13:12:45;4.18;;;2.28;;
48873;SDS011;66155;46.204;5.220;2023-08-06T13:18:36;2.85;;;1.88;;
48873;SDS011;66155;46.204;5.220;2023-08-06T13:24:28;3.42;;;2.30;;
48873;SDS011;66155;46.204;5.220;2023-08-06T13:30:19;3.20;;;2.50;;
48873;SDS011;66155;46.204;5.220;2023-08-06T13:36:10;3.20;;;1.95;;
48873;SDS011;66155;46.204;5.220;2023-08-06T13:42:02;2.70;;;1.80;;
48873;SDS011;66155;46.204;5.220;2023-08-06T13:47:54;3.03;;;1.88;;
48873;SDS011;66155;46.204;5.220;2023-08-06T13:53:46;3.55;;;1.95;;
48873;SDS011;66155;46.204;5.220;2023-08-06T13:59:37;4.03;;;2.15;;
48873;SDS011;66155;46.204;5.220;2023-08-06T14:05:28;2.80;;;1.63;;
48873;SDS011;66155;46.204;5.220;2023-08-06T14:11:19;2.08;;;1.50;;
48873;SDS011;66155;46.204;5.220;2023-08-06T14:17:10;4.28;;;1.80;;
48873;SDS011;66155;46.204;5.220;2023-08-06T14:23:02;5.00;;;3.10;;
48873;SDS011;66155;46.204;5.220;2023-08-06T14:28:53;3.97;;;2.88;;
48873;SDS011;66155;46.204;5.220;2023-08-06T14:34:44;4.13;;;2.80;;
48873;SDS011;66155;46.204;5.220;2023-08-06T14:40:35;2.95;;;1.60;;
48873;SDS011;66155;46.204;5.220;2023-08-06T14:46:27;3.40;;;1.70;;
48873;SDS011;66155;46.204;5.220;2023-08-06T14:52:18;2.50;;;2.00;;
48873;SDS011;66155;46.204;5.220;2023-08-06T14:58:10;2.35;;;1.92;;
48873;SDS011;66155;46.204;5.220;2023-08-06T15:04:01;3.05;;;1.90;;
48873;SDS011;66155;46.204;5.220;2023-08-06T15:09:52;3.00;;;1.80;;
48873;SDS011;66155;46.204;5.220;2023-08-06T15:15:49;3.42;;;2.40;;
48873;SDS011;66155;46.204;5.220;2023-08-06T15:21:40;4.47;;;1.83;;
48873;SDS011;66155;46.204;5.220;2023-08-06T15:27:32;3.05;;;1.98;;
48873;SDS011;66155;46.204;5.220;2023-08-06T15:33:23;2.00;;;1.77;;
48873;SDS011;66155;46.204;5.220;2023-08-06T15:39:15;3.72;;;2.20;;
48873;SDS011;66155;46.204;5.220;2023-08-06T15:45:06;3.25;;;2.00;;
48873;SDS011;66155;46.204;5.220;2023-08-06T15:50:57;2.30;;;1.90;;
48873;SDS011;66155;46.204;5.220;2023-08-06T15:56:49;3.70;;;2.05;;
48873;SDS011;66155;46.204;5.220;2023-08-06T16:02:40;1.90;;;1.80;;
48873;SDS011;66155;46.204;5.220;2023-08-06T16:08:31;2.10;;;1.90;;
48873;SDS011;66155;46.204;5.220;2023-08-06T16:14:25;5.63;;;2.00;;
48873;SDS011;66155;46.204;5.220;2023-08-06T16:20:19;2.95;;;2.00;;
48873;SDS011;66155;46.204;5.220;2023-08-06T16:26:10;3.35;;;1.77;;
48873;SDS011;66155;46.204;5.220;2023-08-06T16:32:01;4.65;;;1.90;;
48873;SDS011;66155;46.204;5.220;2023-08-06T16:37:52;2.67;;;2.03;;
48873;SDS011;66155;46.204;5.220;2023-08-06T16:43:43;2.40;;;1.90;;
48873;SDS011;66155;46.204;5.220;2023-08-06T16:49:35;3.35;;;2.08;;
48873;SDS011;66155;46.204;5.220;2023-08-06T16:55:26;3.38;;;1.90;;
48873;SDS011;66155;46.204;5.220;2023-08-06T17:01:17;2.30;;;1.75;;
48873;SDS011;66155;46.204;5.220;2023-08-06T17:07:08;2.80;;;1.80;;
48873;SDS011;66155;46.204;5.220;2023-08-06T17:12:59;1.90;;;1.80;;
48873;SDS011;66155;46.204;5.220;2023-08-06T17:18:50;4.40;;;1.98;;
48873;SDS011;66155;46.204;5.220;2023-08-06T17:24:44;3.78;;;2.25;;
48873;SDS011;66155;46.204;5.220;2023-08-06T17:30:35;2.95;;;2.10;;
48873;SDS011;66155;46.204;5.220;2023-08-06T17:36:26;3.63;;;1.75;;
48873;SDS011;66155;46.204;5.220;2023-08-06T17:42:25;5.43;;;1.95;;
48873;SDS011;66155;46.204;5.220;2023-08-06T17:48:24;2.90;;;1.80;;
48873;SDS011;66155;46.204;5.220;2023-08-06T17:54:23;7.20;;;2.35;;
48873;SDS011;66155;46.204;5.220;2023-08-06T18:00:22;2.50;;;2.03;;
48873;SDS011;66155;46.204;5.220;2023-08-06T18:06:21;2.35;;;1.65;;
48873;SDS011;66155;46.204;5.220;2023-08-06T18:12:20;2.33;;;1.88;;
48873;SDS011;66155;46.204;5.220;2023-08-06T18:18:19;3.05;;;1.90;;
48873;SDS011;66155;46.204;5.220;2023-08-06T18:24:18;3.13;;;2.15;;
48873;SDS011;66155;46.204;5.220;2023-08-06T18:30:17;3.22;;;1.85;;
48873;SDS011;66155;46.204;5.220;2023-08-06T18:36:17;2.58;;;1.98;;
48873;SDS011;66155;46.204;5.220;2023-08-06T18:42:16;3.33;;;1.80;;
48873;SDS011;66155;46.204;5.220;2023-08-06T18:48:15;2.97;;;2.00;;
48873;SDS011;66155;46.204;5.220;2023-08-06T18:54:14;2.67;;;2.33;;
48873;SDS011;66155;46.204;5.220;2023-08-06T19:00:13;4.05;;;1.90;;
48873;SDS011;66155;46.204;5.220;2023-08-06T19:06:12;3.70;;;2.00;;
48873;SDS011;66155;46.204;5.220;2023-08-06T19:12:12;4.47;;;1.90;;
48873;SDS011;66155;46.204;5.220;2023-08-06T19:18:11;4.70;;;4.18;;
48873;SDS011;66155;46.204;5.220;2023-08-06T19:24:10;3.20;;;2.85;;
48873;SDS011;66155;46.204;5.220;2023-08-06T19:30:09;1.70;;;1.60;;
48873;SDS011;66155;46.204;5.220;2023-08-06T19:36:08;2.30;;;1.83;;
48873;SDS011;66155;46.204;5.220;2023-08-06T19:42:07;2.30;;;1.95;;
48873;SDS011;66155;46.204;5.220;2023-08-06T19:48:06;1.90;;;1.70;;
48873;SDS011;66155;46.204;5.220;2023-08-06T19:54:06;2.08;;;1.85;;
48873;SDS011;66155;46.204;5.220;2023-08-06T20:00:05;3.05;;;1.90;;
48873;SDS011;66155;46.204;5.220;2023-08-06T20:06:06;1.88;;;1.63;;
48873;SDS011;66155;46.204;5.220;2023-08-06T20:12:05;2.30;;;1.65;;
48873;SDS011;66155;46.204;5.220;2023-08-06T20:18:05;4.05;;;2.00;;
48873;SDS011;66155;46.204;5.220;2023-08-06T20:24:04;2.47;;;1.70;;
48873;SDS011;66155;46.204;5.220;2023-08-06T20:30:04;2.97;;;1.52;;
48873;SDS011;66155;46.204;5.220;2023-08-06T20:36:03;3.38;;;1.67;;
48873;SDS011;66155;46.204;5.220;2023-08-06T20:42:02;4.20;;;1.85;;
48873;SDS011;66155;46.204;5.220;2023-08-06T20:48:01;2.75;;;1.60;;
48873;SDS011;66155;46.204;5.220;2023-08-06T20:54:00;2.40;;;1.60;;
48873;SDS011;66155;46.204;5.220;2023-08-06T20:59:59;2.15;;;1.65;;
48873;SDS011;66155;46.204;5.220;2023-08-06T21:06:03;2.00;;;1.70;;
48873;SDS011;66155;46.204;5.220;2023-08-06T21:12:03;3.03;;;1.80;;
48873;SDS011;66155;46.204;5.220;2023-08-06T21:18:02;2.08;;;1.77;;
48873;SDS011;66155;46.204;5.220;2023-08-06T21:24:01;2.78;;;1.80;;
48873;SDS011;66155;46.204;5.220;2023-08-06T21:30:00;4.10;;;1.88;;
48873;SDS011;66155;46.204;5.220;2023-08-06T21:36:00;2.78;;;1.98;;
48873;SDS011;66155;46.204;5.220;2023-08-06T21:41:59;2.33;;;1.83;;
48873;SDS011;66155;46.204;5.220;2023-08-06T21:47:58;2.97;;;1.50;;
48873;SDS011;66155;46.204;5.220;2023-08-06T21:53:57;2.47;;;1.70;;
48873;SDS011;66155;46.204;5.220;2023-08-06T21:59:56;2.03;;;1.83;;
48873;SDS011;66155;46.204;5.220;2023-08-06T22:05:55;2.17;;;1.60;;
48873;SDS011;66155;46.204;5.220;2023-08-06T22:11:54;5.00;;;1.90;;
48873;SDS011;66155;46.204;5.220;2023-08-06T22:17:53;3.63;;;2.00;;
48873;SDS011;66155;46.204;5.220;2023-08-06T22:23:52;3.88;;;2.08;;
48873;SDS011;66155;46.204;5.220;2023-08-06T22:29:51;3.25;;;2.30;;
48873;SDS011;66155;46.204;5.220;2023-08-06T22:35:50;3.88;;;2.40;;
48873;SDS011;66155;46.204;5.220;2023-08-06T22:41:49;2.38;;;1.98;;
48873;SDS011;66155;46.204;5.220;2023-08-06T22:47:48;3.55;;;1.90;;
48873;SDS011;66155;46.204;5.220;2023-08-06T22:53:47;3.13;;;1.70;;
48873;SDS011;66155;46.204;5.220;2023-08-06T22:59:46;2.53;;;1.80;;
48873;SDS011;66155;46.204;5.220;2023-08-06T23:05:45;3.33;;;1.90;;
48873;SDS011;66155;46.204;5.220;2023-08-06T23:11:44;5.75;;;2.20;;
48873;SDS011;66155;46.204;5.220;2023-08-06T23:17:44;3.13;;;2.20;;
48873;SDS011;66155;46.204;5.220;2023-08-06T23:23:43;3.25;;;2.10;;
48873;SDS011;66155;46.204;5.220;2023-08-06T23:29:42;4.15;;;2.05;;
48873;SDS011;66155;46.204;5.220;2023-08-06T23:35:44;2.20;;;2.00;;
48873;SDS011;66155;46.204;5.220;2023-08-06T23:41:43;3.70;;;1.90;;
48873;SDS011;66155;46.204;5.220;2023-08-06T23:47:42;3.97;;;2.25;;
48873;SDS011;66155;46.204;5.220;2023-08-06T23:53:41;2.90;;;1.90;;
48873;SDS011;66155;46.204;5.220;2023-08-06T23:59:40;3.15;;;1.98;;
